createdAt,value
2023-02-11T00:01:31.055Z,31.20
2023-02-11T00:04:00.342Z,31.27
2023-02-11T00:06:32.463Z,30.67
2023-02-11T00:09:00.586Z,28.90
2023-02-11T00:11:30.384Z,43.30
2023-02-11T00:14:05.199Z,32.55
2023-02-11T00:16:32.971Z,29.73
2023-02-11T00:19:02.424Z,30.70
2023-02-11T00:21:30.519Z,30.85
2023-02-11T00:24:00.253Z,31.50
2023-02-11T00:26:33.230Z,37.13
2023-02-11T00:29:01.978Z,30.70
2023-02-11T00:31:33.130Z,30.02
2023-02-11T00:34:01.538Z,32.25
2023-02-11T00:36:30.289Z,32.28
2023-02-11T00:38:59.101Z,33.15
2023-02-11T00:41:27.196Z,30.55
2023-02-11T00:43:54.755Z,29.52
2023-02-11T00:46:23.566Z,29.85
2023-02-11T00:48:53.291Z,31.27
2023-02-11T00:51:22.471Z,31.08
2023-02-11T00:53:50.559Z,30.25
2023-02-11T00:56:18.476Z,30.65
2023-02-11T00:58:46.501Z,30.57
2023-02-11T01:01:14.518Z,29.73
2023-02-11T01:03:44.050Z,29.83
2023-02-11T01:06:12.611Z,29.98
2023-02-11T01:08:40.571Z,29.67
2023-02-11T01:11:16.666Z,30.33
2023-02-11T01:13:48.385Z,29.45
2023-02-11T01:16:18.078Z,28.88
2023-02-11T01:18:47.253Z,29.75
2023-02-11T01:21:15.168Z,30.02
2023-02-11T01:26:12.988Z,29.92
2023-02-11T01:28:40.655Z,27.50
2023-02-11T01:31:08.284Z,28.05
2023-02-11T01:33:35.948Z,29.63
2023-02-11T01:36:06.420Z,30.55
2023-02-11T01:38:34.564Z,29.80
2023-02-11T01:41:09.859Z,31.30
2023-02-11T01:43:42.382Z,30.38
2023-02-11T01:46:33.646Z,28.58
2023-02-11T01:49:11.669Z,30.00
2023-02-11T01:52:02.228Z,29.87
2023-02-11T01:54:54.951Z,28.02
2023-02-11T01:57:28.191Z,29.30
2023-02-11T02:00:09.740Z,28.20
2023-02-11T02:03:20.245Z,27.00
2023-02-11T02:06:27.199Z,29.83
2023-02-11T02:09:10.085Z,27.88
2023-02-11T02:11:38.143Z,28.08
2023-02-11T02:14:08.609Z,31.38
2023-02-11T02:16:37.829Z,29.20
2023-02-11T02:20:16.363Z,29.27
2023-02-11T02:22:55.856Z,28.45
2023-02-11T02:25:57.770Z,28.17
2023-02-11T02:29:22.619Z,27.92
2023-02-11T02:32:30.140Z,29.45
2023-02-11T02:35:24.102Z,27.88
2023-02-11T02:38:06.920Z,28.65
2023-02-11T02:40:59.730Z,31.10
2023-02-11T02:43:29.442Z,29.52
2023-02-11T02:46:13.122Z,30.88
2023-02-11T02:48:40.787Z,29.10
2023-02-11T02:51:31.537Z,28.58
2023-02-11T02:54:17.666Z,28.95
2023-02-11T02:57:25.735Z,30.17
2023-02-11T03:00:21.176Z,30.40
2023-02-11T03:03:06.727Z,29.48
2023-02-11T03:06:11.561Z,29.38
2023-02-11T03:08:53.057Z,29.23
2023-02-11T03:11:21.979Z,27.55
2023-02-11T03:13:51.606Z,28.33
2023-02-11T03:16:26.631Z,28.45
2023-02-11T03:19:07.474Z,29.50
2023-02-11T03:21:39.435Z,28.95
2023-02-11T03:24:41.390Z,28.30
2023-02-11T03:27:21.222Z,29.08
2023-02-11T03:30:19.080Z,28.05
2023-02-11T03:33:27.700Z,30.03
2023-02-11T03:36:00.628Z,27.77
2023-02-11T03:38:38.736Z,29.42
2023-02-11T03:41:08.723Z,29.42
2023-02-11T03:43:56.139Z,32.33
2023-02-11T03:46:32.233Z,30.80
2023-02-11T03:49:07.120Z,31.08
2023-02-11T03:51:36.039Z,30.73
2023-02-11T03:54:12.498Z,30.70
2023-02-11T03:56:53.032Z,29.23
2023-02-11T03:59:20.825Z,30.08
2023-02-11T04:01:48.681Z,30.10
2023-02-11T04:04:16.846Z,30.15
2023-02-11T04:06:44.585Z,30.03
2023-02-11T04:09:12.802Z,29.50
2023-02-11T04:11:40.383Z,29.47
2023-02-11T04:14:08.649Z,30.67
2023-02-11T04:16:36.466Z,30.75
2023-02-11T04:19:04.118Z,28.90
2023-02-11T04:21:31.891Z,29.33
2023-02-11T04:23:59.532Z,30.15
2023-02-11T04:26:27.144Z,30.27
2023-02-11T04:28:54.706Z,28.13
2023-02-11T04:31:22.410Z,29.35
2023-02-11T04:33:50.155Z,30.67
2023-02-11T04:36:17.810Z,29.00
2023-02-11T04:38:45.352Z,27.85
2023-02-11T04:41:12.984Z,30.15
2023-02-11T04:43:40.620Z,27.63
2023-02-11T04:46:08.287Z,28.98
2023-02-11T04:48:35.970Z,28.00
2023-02-11T04:51:04.041Z,29.52
2023-02-11T04:53:31.800Z,28.77
2023-02-11T04:55:59.805Z,29.20
2023-02-11T04:58:27.582Z,30.45
2023-02-11T05:00:55.256Z,27.13
2023-02-11T05:03:22.905Z,29.27
2023-02-11T05:05:51.307Z,29.92
2023-02-11T05:08:19.060Z,27.98
2023-02-11T05:10:48.084Z,30.40
2023-02-11T05:13:15.628Z,28.15
2023-02-11T05:15:43.182Z,29.20
2023-02-11T05:18:10.819Z,27.70
2023-02-11T05:20:39.348Z,29.10
2023-02-11T05:23:07.252Z,28.95
2023-02-11T05:25:34.951Z,28.38
2023-02-11T05:28:02.548Z,30.08
2023-02-11T05:30:30.942Z,28.48
2023-02-11T05:32:58.913Z,27.92
2023-02-11T05:35:26.471Z,28.05
2023-02-11T05:37:54.095Z,30.38
2023-02-11T05:40:21.968Z,27.52
2023-02-11T05:42:49.612Z,28.05
2023-02-11T05:45:17.285Z,29.15
2023-02-11T05:47:45.122Z,29.00
2023-02-11T05:50:12.920Z,28.03
2023-02-11T05:52:40.725Z,28.50
2023-02-11T05:55:08.823Z,28.58
2023-02-11T05:57:36.414Z,28.20
2023-02-11T06:00:05.701Z,28.85
2023-02-11T06:02:40.781Z,27.92
2023-02-11T06:05:09.076Z,30.05
2023-02-11T06:07:36.580Z,28.15
2023-02-11T06:10:04.760Z,27.98
2023-02-11T06:12:32.297Z,27.17
2023-02-11T06:14:59.818Z,28.30
2023-02-11T06:17:42.601Z,29.85
2023-02-11T06:20:11.549Z,27.13
2023-02-11T06:22:39.556Z,30.15
2023-02-11T06:25:07.431Z,26.95
2023-02-11T06:27:35.303Z,27.27
2023-02-11T06:30:05.055Z,27.58
2023-02-11T06:32:44.680Z,28.60
2023-02-11T06:35:14.438Z,27.65
2023-02-11T06:40:11.798Z,27.30
2023-02-11T06:42:39.763Z,27.88
2023-02-11T06:45:10.715Z,28.58
2023-02-11T06:47:39.988Z,28.83
2023-02-11T06:50:11.653Z,29.00
2023-02-11T06:52:39.239Z,28.90
2023-02-11T06:55:07.459Z,29.55
2023-02-11T06:57:35.140Z,28.60
2023-02-11T07:00:02.955Z,28.65
2023-02-11T07:02:31.742Z,28.60
2023-02-11T07:04:59.337Z,28.40
2023-02-11T07:07:28.361Z,28.17
2023-02-11T07:09:55.861Z,28.00
2023-02-11T07:12:23.749Z,28.30
2023-02-11T07:14:51.449Z,29.10
2023-02-11T07:17:19.109Z,28.58
2023-02-11T07:19:46.656Z,28.83
2023-02-11T07:22:14.627Z,27.13
2023-02-11T07:24:42.266Z,29.92
2023-02-11T07:27:09.916Z,27.85
2023-02-11T07:29:37.777Z,28.15
2023-02-11T07:32:05.857Z,30.50
2023-02-11T07:34:33.619Z,28.77
2023-02-11T07:37:01.335Z,29.20
2023-02-11T07:39:29.414Z,28.08
2023-02-11T07:41:57.479Z,29.45
2023-02-11T07:44:25.770Z,30.55
2023-02-11T07:46:53.469Z,30.63
2023-02-11T07:49:21.028Z,30.00
2023-02-11T07:51:49.211Z,30.48
2023-02-11T07:54:17.494Z,30.00
2023-02-11T07:56:45.040Z,30.52
2023-02-11T07:59:13.022Z,31.48
2023-02-11T08:01:40.530Z,29.58
2023-02-11T08:04:08.077Z,30.08
2023-02-11T08:06:42.259Z,29.02
2023-02-11T08:09:14.665Z,28.70
2023-02-11T08:11:42.765Z,29.50
2023-02-11T08:14:11.224Z,29.25
2023-02-11T08:16:40.233Z,30.90
2023-02-11T08:19:16.755Z,29.20
2023-02-11T08:21:45.096Z,29.15
2023-02-11T08:24:14.619Z,30.90
2023-02-11T08:26:42.386Z,30.30
2023-02-11T08:29:14.413Z,29.25
2023-02-11T08:31:45.551Z,31.52
2023-02-11T08:34:14.537Z,28.10
2023-02-11T08:36:43.738Z,28.95
2023-02-11T08:39:20.992Z,30.98
2023-02-11T08:41:54.032Z,30.67
2023-02-11T08:44:22.967Z,31.77
2023-02-11T08:46:51.365Z,29.38
2023-02-11T08:49:19.787Z,29.02
2023-02-11T08:51:49.749Z,29.98
2023-02-11T08:54:17.898Z,29.92
2023-02-11T08:56:45.864Z,30.08
2023-02-11T08:59:15.456Z,30.48
2023-02-11T09:01:44.370Z,29.83
2023-02-11T09:04:12.500Z,29.88
2023-02-11T09:06:40.561Z,30.48
2023-02-11T09:09:13.615Z,29.63
2023-02-11T09:11:43.817Z,28.80
2023-02-11T09:14:21.940Z,30.40
2023-02-11T09:16:51.510Z,28.83
2023-02-11T09:19:20.296Z,28.65
2023-02-11T09:21:47.967Z,28.42
2023-02-11T09:24:15.724Z,27.83
2023-02-11T09:26:44.099Z,28.83
2023-02-11T09:29:12.689Z,29.30
2023-02-11T09:31:40.652Z,28.70
2023-02-11T09:34:08.904Z,28.23
2023-02-11T09:36:40.263Z,28.52
2023-02-11T09:39:14.477Z,27.60
2023-02-11T09:42:02.440Z,27.42
2023-02-11T09:44:34.857Z,27.30
2023-02-11T09:47:29.894Z,27.30
2023-02-11T09:50:11.817Z,29.98
2023-02-11T09:53:03.879Z,27.50
2023-02-11T09:55:42.374Z,35.75
2023-02-11T09:58:31.805Z,38.78
2023-02-11T10:01:23.501Z,27.15
2023-02-11T10:04:19.457Z,26.77
2023-02-11T10:06:55.459Z,27.40
2023-02-11T10:09:50.811Z,26.65
2023-02-11T10:12:59.874Z,26.88
2023-02-11T10:18:05.827Z,25.35
2023-02-11T10:21:00.427Z,26.10
2023-02-11T10:23:34.530Z,25.30
2023-02-11T10:26:03.048Z,26.92
2023-02-11T10:28:36.344Z,26.20
2023-02-11T10:31:19.962Z,26.02
2023-02-11T10:34:04.685Z,26.45
2023-02-11T10:36:37.519Z,24.23
2023-02-11T10:39:18.119Z,31.27
2023-02-11T10:41:57.154Z,33.08
2023-02-11T10:47:03.811Z,24.15
2023-02-11T10:49:42.907Z,24.20
2023-02-11T10:52:25.064Z,23.55
2023-02-11T10:55:13.892Z,23.98
2023-02-11T10:57:59.480Z,23.05
2023-02-11T11:00:39.307Z,22.80
2023-02-11T11:03:25.316Z,22.05
2023-02-11T11:05:59.653Z,21.52
2023-02-11T11:08:50.809Z,22.35
2023-02-11T11:11:24.186Z,20.83
2023-02-11T11:14:00.640Z,21.65
2023-02-11T11:16:36.849Z,22.15
2023-02-11T11:19:07.389Z,21.10
2023-02-11T11:21:53.401Z,21.48
2023-02-11T11:24:44.795Z,21.70
2023-02-11T11:27:22.125Z,22.48
2023-02-11T11:29:55.505Z,22.40
2023-02-11T11:32:28.535Z,24.92
2023-02-11T11:35:02.694Z,25.90
2023-02-11T11:37:37.219Z,23.00
2023-02-11T11:40:15.851Z,21.25
2023-02-11T11:42:43.718Z,22.05
2023-02-11T11:45:20.077Z,19.75
2023-02-11T11:48:20.859Z,20.55
2023-02-11T11:50:57.697Z,20.90
2023-02-11T11:53:31.249Z,20.13
2023-02-11T11:56:22.389Z,18.73
2023-02-11T11:58:51.449Z,19.30
2023-02-11T12:01:51.758Z,18.23
2023-02-11T12:04:40.646Z,16.70
2023-02-11T12:07:34.545Z,15.90
2023-02-11T12:10:40.510Z,15.00
2023-02-11T12:13:18.261Z,14.38
2023-02-11T12:16:10.085Z,13.35
2023-02-11T12:19:10.704Z,12.38
2023-02-11T12:21:56.343Z,14.00
2023-02-11T12:25:17.286Z,15.82
2023-02-11T12:28:26.248Z,15.35
2023-02-11T12:31:26.306Z,14.18
2023-02-11T12:34:17.049Z,14.57
2023-02-11T12:37:07.752Z,12.88
2023-02-11T12:39:50.831Z,14.27
2023-02-11T12:43:14.765Z,13.05
2023-02-11T12:46:02.595Z,13.38
2023-02-11T12:49:16.002Z,12.90
2023-02-11T12:52:12.004Z,11.68
2023-02-11T12:54:58.488Z,12.43
2023-02-11T12:57:30.261Z,12.18
2023-02-11T13:00:15.901Z,12.32
2023-02-11T13:02:55.774Z,11.27
2023-02-11T13:05:28.382Z,11.02
2023-02-11T13:08:21.223Z,9.75
2023-02-11T13:10:54.890Z,9.25
2023-02-11T13:13:30.754Z,9.02
2023-02-11T13:16:10.028Z,8.88
2023-02-11T13:19:01.416Z,9.20
2023-02-11T13:22:07.964Z,8.77
2023-02-11T13:25:01.338Z,8.38
2023-02-11T13:28:03.408Z,8.57
2023-02-11T13:30:35.810Z,8.55
2023-02-11T13:33:16.627Z,9.15
2023-02-11T13:36:04.895Z,7.25
2023-02-11T13:38:33.637Z,8.35
2023-02-11T13:41:24.807Z,8.10
2023-02-11T13:44:11.103Z,8.10
2023-02-11T13:46:53.851Z,7.95
2023-02-11T13:49:27.906Z,8.30
2023-02-11T13:51:57.029Z,8.50
2023-02-11T13:57:20.868Z,7.78
2023-02-11T14:00:02.097Z,8.57
2023-02-11T14:02:52.816Z,16.60
2023-02-11T14:05:48.038Z,10.43
2023-02-11T14:08:40.372Z,9.35
2023-02-11T14:11:34.140Z,10.48
2023-02-11T14:14:33.537Z,11.00
2023-02-11T14:17:07.046Z,10.05
2023-02-11T14:19:38.453Z,11.00
2023-02-11T14:22:41.648Z,10.82
2023-02-11T14:25:25.445Z,11.38
2023-02-11T14:28:23.842Z,10.57
2023-02-11T14:31:05.155Z,11.75
2023-02-11T14:33:48.188Z,11.30
2023-02-11T14:36:53.306Z,11.25
2023-02-11T14:39:53.771Z,11.68
2023-02-11T14:42:26.794Z,11.77
2023-02-11T14:44:57.556Z,11.75
2023-02-11T14:47:52.551Z,13.05
2023-02-11T14:50:32.869Z,12.70
2023-02-11T14:53:03.113Z,13.30
2023-02-11T14:55:41.657Z,12.85
2023-02-11T14:58:46.407Z,11.45
2023-02-11T15:01:41.935Z,11.85
2023-02-11T15:04:30.933Z,12.10
2023-02-11T15:07:08.277Z,12.35
2023-02-11T15:09:53.078Z,12.70
2023-02-11T15:12:28.573Z,12.95
2023-02-11T15:15:00.000Z,12.30
2023-02-11T15:17:31.781Z,11.85
2023-02-11T15:20:02.285Z,13.95
2023-02-11T15:22:36.820Z,11.60
2023-02-11T15:25:07.189Z,13.00
2023-02-11T15:27:49.542Z,12.65
2023-02-11T15:30:26.353Z,13.45
2023-02-11T15:33:02.713Z,13.80
2023-02-11T15:35:38.080Z,14.50
2023-02-11T15:38:06.059Z,14.30
2023-02-11T15:40:36.799Z,13.43
2023-02-11T15:43:07.565Z,12.95
2023-02-11T15:45:53.575Z,13.48
2023-02-11T15:48:53.736Z,14.05
2023-02-11T15:51:35.502Z,12.90
2023-02-11T15:54:16.558Z,13.35
2023-02-11T15:56:48.562Z,14.30
2023-02-11T15:59:30.667Z,13.25
2023-02-11T16:02:24.696Z,13.10
2023-02-11T16:05:07.468Z,13.50
2023-02-11T16:07:47.910Z,12.95
2023-02-11T16:10:20.194Z,13.30
2023-02-11T16:13:14.107Z,13.73
2023-02-11T16:15:53.175Z,13.70
2023-02-11T16:21:17.847Z,13.15
2023-02-11T16:23:54.072Z,14.20
2023-02-11T16:26:34.948Z,14.30
2023-02-11T16:29:24.865Z,14.73
2023-02-11T16:31:55.548Z,13.98
2023-02-11T16:34:25.660Z,14.70
2023-02-11T16:36:53.845Z,16.08
2023-02-11T16:39:22.459Z,16.63
2023-02-11T16:41:51.473Z,15.30
2023-02-11T16:44:19.946Z,15.85
2023-02-11T16:46:48.066Z,15.75
2023-02-11T16:49:44.488Z,16.52
2023-02-11T16:52:15.809Z,22.83
2023-02-11T16:54:43.804Z,18.50
2023-02-11T16:57:28.828Z,16.05
2023-02-11T16:59:59.078Z,17.08
2023-02-11T17:02:31.079Z,18.92
2023-02-11T17:05:03.387Z,17.65
2023-02-11T17:07:31.789Z,16.45
2023-02-11T17:09:59.747Z,18.02
2023-02-11T17:12:27.449Z,17.77
2023-02-11T17:14:55.107Z,17.42
2023-02-11T17:17:23.832Z,17.30
2023-02-11T17:19:51.536Z,16.80
2023-02-11T17:22:19.372Z,18.08
2023-02-11T17:24:46.935Z,23.92
2023-02-11T17:27:15.152Z,20.35
2023-02-11T17:29:42.758Z,20.27
2023-02-11T17:32:10.459Z,18.40
2023-02-11T17:34:38.304Z,18.55
2023-02-11T17:37:09.668Z,19.75
2023-02-11T17:39:40.104Z,18.73
2023-02-11T17:42:08.811Z,19.02
2023-02-11T17:44:37.236Z,18.45
2023-02-11T17:47:05.065Z,18.67
2023-02-11T17:49:32.769Z,18.15
2023-02-11T17:52:00.794Z,17.40
2023-02-11T17:54:28.432Z,21.23
2023-02-11T17:56:58.317Z,18.90
2023-02-11T17:59:28.441Z,18.70
2023-02-11T18:01:56.096Z,18.88
2023-02-11T18:04:24.024Z,18.55
2023-02-11T18:06:53.607Z,19.63
2023-02-11T18:09:21.395Z,18.65
2023-02-11T18:11:52.582Z,18.70
2023-02-11T18:14:21.246Z,19.37
2023-02-11T18:16:53.304Z,19.08
2023-02-11T18:19:21.400Z,19.13
2023-02-11T18:21:50.335Z,21.73
2023-02-11T18:24:18.967Z,20.30
2023-02-11T18:26:46.694Z,22.13
2023-02-11T18:29:14.349Z,20.42
2023-02-11T18:31:42.147Z,20.40
2023-02-11T18:34:11.682Z,21.67
2023-02-11T18:36:39.581Z,22.70
2023-02-11T18:39:07.404Z,20.67
2023-02-11T18:41:35.853Z,21.75
2023-02-11T18:44:04.850Z,25.67
2023-02-11T18:46:32.851Z,23.98
2023-02-11T18:49:01.058Z,24.90
2023-02-11T18:51:31.821Z,27.70
2023-02-11T18:54:01.088Z,25.60
2023-02-11T18:56:28.869Z,25.92
2023-02-11T18:58:58.227Z,24.63
2023-02-11T19:01:28.385Z,22.98
2023-02-11T19:03:58.782Z,23.60
2023-02-11T19:06:30.232Z,22.17
2023-02-11T19:09:01.572Z,22.20
2023-02-11T19:11:49.838Z,24.08
2023-02-11T19:14:27.231Z,23.23
2023-02-11T19:16:58.329Z,24.42
2023-02-11T19:19:29.909Z,24.70
2023-02-11T19:21:59.353Z,23.15
2023-02-11T19:24:31.319Z,24.15
2023-02-11T19:27:03.112Z,23.02
2023-02-11T19:29:34.978Z,24.42
2023-02-11T19:32:06.710Z,24.42
2023-02-11T19:34:41.204Z,24.13
2023-02-11T19:37:16.188Z,23.95
2023-02-11T19:39:43.964Z,24.05
2023-02-11T19:42:12.715Z,23.55
2023-02-11T19:44:40.628Z,23.73
2023-02-11T19:47:10.215Z,25.25
2023-02-11T19:49:38.046Z,27.60
2023-02-11T19:52:05.711Z,25.08
2023-02-11T19:54:33.668Z,24.27
2023-02-11T19:57:01.286Z,25.73
2023-02-11T19:59:29.170Z,25.42
2023-02-11T20:01:57.607Z,25.38
2023-02-11T20:04:25.266Z,30.98
2023-02-11T20:06:52.864Z,32.55
2023-02-11T20:09:21.673Z,30.83
2023-02-11T20:11:49.416Z,32.42
2023-02-11T20:14:17.278Z,30.73
2023-02-11T20:16:49.279Z,30.70
2023-02-11T20:19:21.582Z,29.02
2023-02-11T20:21:53.177Z,30.98
2023-02-11T20:24:21.738Z,29.83
2023-02-11T20:26:51.568Z,30.17
2023-02-11T20:29:19.740Z,28.52
2023-02-11T20:31:49.165Z,29.40
2023-02-11T20:34:17.865Z,28.27
2023-02-11T20:36:51.841Z,29.50
2023-02-11T20:39:22.653Z,27.38
2023-02-11T20:41:51.614Z,30.65
2023-02-11T20:44:21.615Z,27.23
2023-02-11T20:46:50.332Z,27.45
2023-02-11T20:49:21.580Z,31.73
2023-02-11T20:51:51.277Z,31.30
2023-02-11T20:54:20.959Z,33.70
2023-02-11T20:56:51.283Z,34.70
2023-02-11T20:59:21.013Z,31.33
2023-02-11T21:01:55.567Z,32.25
2023-02-11T21:04:27.565Z,30.08
2023-02-11T21:06:59.558Z,26.92
2023-02-11T21:09:31.528Z,28.70
2023-02-11T21:11:59.720Z,26.73
2023-02-11T21:14:28.492Z,25.67
2023-02-11T21:16:56.326Z,25.67
2023-02-11T21:19:24.240Z,28.60
2023-02-11T21:21:52.005Z,28.48
2023-02-11T21:24:19.732Z,27.77
2023-02-11T21:26:47.389Z,26.45
2023-02-11T21:29:15.094Z,27.30
2023-02-11T21:31:43.136Z,26.42
2023-02-11T21:34:16.612Z,24.95
2023-02-11T21:36:45.130Z,24.70
2023-02-11T21:39:13.652Z,23.23
2023-02-11T21:41:41.503Z,24.23
2023-02-11T21:44:09.393Z,22.60
2023-02-11T21:46:37.369Z,24.80
2023-02-11T21:49:05.154Z,24.70
2023-02-11T21:51:33.032Z,26.35
2023-02-11T21:54:02.677Z,27.02
2023-02-11T21:56:33.387Z,25.50
2023-02-11T21:59:01.568Z,24.30
2023-02-11T22:01:32.544Z,26.98
2023-02-11T22:04:00.697Z,25.13
2023-02-11T22:06:31.906Z,25.53
2023-02-11T22:09:06.234Z,27.65
2023-02-11T22:11:34.343Z,25.90
2023-02-11T22:14:02.114Z,25.98
2023-02-11T22:16:30.910Z,28.00
2023-02-11T22:19:00.221Z,27.17
2023-02-11T22:21:28.076Z,27.80
2023-02-11T22:23:57.063Z,26.55
2023-02-11T22:26:27.099Z,24.98
2023-02-11T22:28:55.537Z,23.92
2023-02-11T22:31:28.404Z,25.65
2023-02-11T22:34:03.738Z,25.52
2023-02-11T22:36:38.903Z,25.50
2023-02-11T22:39:17.773Z,27.70
2023-02-11T22:41:48.556Z,26.17
2023-02-11T22:44:17.668Z,26.23
2023-02-11T22:46:45.643Z,28.48
2023-02-11T22:49:16.497Z,26.00
2023-02-11T22:51:44.924Z,28.98
2023-02-11T22:54:16.063Z,26.55
2023-02-11T22:56:44.971Z,27.08
2023-02-11T22:59:15.278Z,25.48
2023-02-11T23:01:43.844Z,25.98
2023-02-11T23:04:15.882Z,26.05
2023-02-11T23:06:43.981Z,26.15
2023-02-11T23:09:15.098Z,26.47
2023-02-11T23:11:42.963Z,26.20
2023-02-11T23:14:12.059Z,27.35
2023-02-11T23:16:40.023Z,25.77
2023-02-11T23:19:10.615Z,25.73
2023-02-11T23:21:39.799Z,25.80
2023-02-11T23:24:16.622Z,25.63
2023-02-11T23:26:44.962Z,26.13
2023-02-11T23:29:13.379Z,27.65
2023-02-11T23:31:45.875Z,25.58
2023-02-11T23:34:17.234Z,25.15
2023-02-11T23:36:45.276Z,27.08
2023-02-11T23:39:15.743Z,25.27
2023-02-11T23:41:43.921Z,24.98
2023-02-11T23:44:12.010Z,26.70
2023-02-11T23:46:39.722Z,26.48
2023-02-11T23:49:07.443Z,26.35
2023-02-11T23:51:35.198Z,25.65
2023-02-11T23:54:03.243Z,26.98
2023-02-11T23:56:31.070Z,24.92
2023-02-11T23:58:59.509Z,26.20
